createdAt,value
2022-07-29T00:00:02.113Z,2.20
2022-07-29T00:05:06.716Z,1.80
2022-07-29T00:10:08.849Z,2.00
2022-07-29T00:15:10.732Z,2.22
2022-07-29T00:20:12.587Z,2.40
2022-07-29T00:25:14.590Z,2.45
2022-07-29T00:30:16.702Z,2.22
2022-07-29T00:35:36.726Z,2.53
2022-07-29T00:40:38.512Z,2.63
2022-07-29T00:45:45.505Z,2.60
2022-07-29T00:50:47.449Z,2.83
2022-07-29T00:55:49.193Z,2.60
2022-07-29T01:00:51.327Z,2.75
2022-07-29T01:05:54.174Z,2.42
2022-07-29T01:10:56.315Z,2.38
2022-07-29T01:16:10.834Z,2.35
2022-07-29T01:21:42.406Z,2.72
2022-07-29T01:26:48.021Z,2.17
2022-07-29T01:31:59.839Z,3.13
2022-07-29T01:37:24.927Z,2.85
2022-07-29T01:42:49.613Z,2.50
2022-07-29T01:48:01.157Z,2.65
2022-07-29T01:53:06.348Z,2.60
2022-07-29T01:58:09.575Z,2.47
2022-07-29T02:03:14.030Z,4.53
2022-07-29T02:08:17.918Z,2.50
2022-07-29T02:13:21.607Z,2.60
2022-07-29T02:18:26.185Z,3.13
2022-07-29T02:23:28.786Z,2.70
2022-07-29T02:28:31.931Z,2.60
2022-07-29T02:33:34.605Z,3.80
2022-07-29T02:38:58.477Z,2.83
2022-07-29T02:44:10.364Z,2.92
2022-07-29T02:49:25.134Z,2.75
2022-07-29T02:54:43.330Z,3.25
2022-07-29T02:59:48.965Z,3.10
2022-07-29T03:04:52.530Z,3.28
2022-07-29T03:09:55.214Z,3.75
2022-07-29T03:14:58.686Z,3.45
2022-07-29T03:20:00.826Z,3.17
2022-07-29T03:25:09.719Z,3.10
2022-07-29T03:30:12.713Z,3.78
2022-07-29T03:35:21.382Z,4.13
2022-07-29T03:40:43.900Z,4.15
2022-07-29T03:45:48.792Z,3.45
2022-07-29T03:50:51.669Z,3.88
2022-07-29T03:56:00.204Z,3.78
2022-07-29T04:01:02.078Z,3.92
2022-07-29T04:06:09.221Z,3.72
2022-07-29T04:11:10.899Z,4.07
2022-07-29T04:16:12.570Z,4.88
2022-07-29T04:21:14.281Z,5.70
2022-07-29T04:26:16.057Z,6.55
2022-07-29T04:31:21.189Z,7.53
2022-07-29T04:36:29.167Z,8.38
2022-07-29T04:41:33.139Z,8.95
2022-07-29T04:46:36.641Z,10.35
2022-07-29T04:51:38.911Z,9.63
2022-07-29T04:56:40.615Z,10.63
2022-07-29T05:01:42.278Z,12.80
2022-07-29T05:06:44.636Z,12.13
2022-07-29T05:11:46.338Z,13.13
2022-07-29T05:16:48.069Z,12.35
2022-07-29T05:21:49.768Z,11.95
2022-07-29T05:26:51.428Z,11.95
2022-07-29T05:31:54.019Z,13.73
2022-07-29T05:36:55.689Z,14.98
2022-07-29T05:41:57.469Z,16.38
2022-07-29T05:46:59.109Z,14.98
2022-07-29T05:52:00.770Z,17.13
2022-07-29T05:57:02.756Z,15.48
2022-07-29T06:02:06.216Z,14.13
2022-07-29T06:07:08.384Z,15.25
2022-07-29T06:12:10.557Z,16.65
2022-07-29T06:17:12.800Z,18.25
2022-07-29T06:22:17.628Z,20.33
2022-07-29T06:27:19.261Z,19.25
2022-07-29T06:32:22.899Z,19.95
2022-07-29T06:37:29.145Z,20.45
2022-07-29T06:42:33.762Z,23.52
2022-07-29T06:47:35.399Z,27.35
2022-07-29T06:52:37.986Z,25.67
2022-07-29T06:57:39.619Z,29.88
2022-07-29T07:02:41.299Z,34.15
2022-07-29T07:07:42.973Z,37.42
2022-07-29T07:12:44.688Z,36.67
2022-07-29T07:17:46.318Z,34.95
2022-07-29T07:22:47.957Z,36.20
2022-07-29T07:27:49.688Z,43.05
2022-07-29T07:32:51.417Z,45.63
2022-07-29T07:37:53.049Z,47.42
2022-07-29T07:42:54.817Z,49.45
2022-07-29T07:47:56.481Z,49.65
2022-07-29T07:52:59.378Z,51.05
2022-07-29T07:58:01.008Z,53.15
2022-07-29T08:03:03.501Z,53.35
2022-07-29T08:08:18.821Z,53.25
2022-07-29T08:13:22.197Z,54.63
2022-07-29T08:18:25.603Z,54.55
2022-07-29T08:23:32.959Z,55.40
2022-07-29T08:28:51.416Z,55.15
2022-07-29T08:33:53.352Z,50.00
2022-07-29T08:38:55.150Z,44.75
2022-07-29T08:43:57.099Z,44.22
2022-07-29T08:48:58.802Z,38.75
2022-07-29T08:54:01.448Z,32.40
2022-07-29T08:59:06.963Z,30.55
2022-07-29T09:04:12.841Z,25.17
2022-07-29T09:09:15.279Z,24.55
2022-07-29T09:14:16.978Z,21.83
2022-07-29T09:19:26.025Z,20.27
2022-07-29T09:24:45.239Z,17.60
2022-07-29T09:29:47.306Z,16.70
2022-07-29T09:34:48.990Z,16.15
2022-07-29T09:39:51.184Z,15.52
2022-07-29T09:44:52.852Z,15.27
2022-07-29T09:49:59.381Z,16.48
2022-07-29T09:55:09.162Z,16.33
2022-07-29T10:00:17.034Z,15.88
2022-07-29T10:05:21.615Z,15.95
2022-07-29T10:10:24.861Z,17.10
2022-07-29T10:15:29.540Z,17.67
2022-07-29T10:20:31.712Z,17.88
2022-07-29T10:25:33.435Z,16.45
2022-07-29T10:30:35.491Z,11.43
2022-07-29T10:35:43.211Z,13.50
2022-07-29T10:41:36.275Z,10.85
2022-07-29T10:46:46.345Z,9.27
2022-07-29T10:52:10.413Z,7.10
2022-07-29T10:57:53.057Z,7.43
2022-07-29T11:02:56.484Z,7.30
2022-07-29T11:08:20.488Z,5.53
2022-07-29T11:14:03.572Z,4.30
2022-07-29T11:19:14.592Z,2.88
2022-07-29T11:24:35.236Z,3.08
2022-07-29T11:29:41.745Z,2.70
2022-07-29T11:34:45.301Z,2.20
2022-07-29T11:39:53.712Z,3.75
2022-07-29T11:44:55.304Z,2.53
2022-07-29T11:49:59.947Z,2.08
2022-07-29T11:55:09.937Z,2.60
2022-07-29T12:00:14.563Z,2.08
2022-07-29T12:05:36.019Z,2.72
2022-07-29T12:10:39.732Z,2.83
2022-07-29T12:15:47.175Z,2.50
2022-07-29T12:20:49.717Z,2.40
2022-07-29T12:25:51.525Z,2.33
2022-07-29T12:30:55.673Z,2.38
2022-07-29T12:36:07.177Z,2.92
2022-07-29T12:41:09.932Z,2.45
2022-07-29T12:46:15.971Z,2.42
2022-07-29T12:51:17.978Z,2.55
2022-07-29T12:56:41.722Z,2.47
2022-07-29T13:01:42.191Z,2.63
2022-07-29T13:06:51.075Z,2.40
2022-07-29T13:11:54.193Z,2.50
2022-07-29T13:17:16.773Z,3.17
2022-07-29T13:22:20.509Z,2.85
2022-07-29T13:27:27.148Z,2.60
2022-07-29T13:32:31.210Z,2.72
2022-07-29T13:37:35.284Z,1.98
2022-07-29T13:42:37.385Z,3.30
2022-07-29T13:47:39.352Z,1.95
2022-07-29T13:52:41.021Z,3.03
2022-07-29T13:57:42.697Z,2.65
2022-07-29T14:02:44.452Z,2.53
2022-07-29T14:07:46.188Z,2.67
2022-07-29T14:12:47.835Z,2.28
2022-07-29T14:17:49.483Z,2.40
2022-07-29T14:22:51.173Z,2.63
2022-07-29T14:27:54.195Z,1.90
2022-07-29T14:32:55.824Z,2.20
2022-07-29T14:37:58.216Z,2.28
2022-07-29T14:42:59.861Z,2.55
2022-07-29T14:48:01.673Z,2.63
2022-07-29T14:53:03.864Z,2.55
2022-07-29T14:58:10.942Z,2.65
2022-07-29T15:03:22.944Z,2.40
2022-07-29T15:08:26.388Z,2.65
2022-07-29T15:13:28.069Z,2.10
2022-07-29T15:18:29.701Z,2.60
2022-07-29T15:23:31.337Z,2.95
2022-07-29T15:28:32.979Z,2.72
2022-07-29T15:33:34.631Z,2.25
2022-07-29T15:38:41.892Z,2.75
2022-07-29T15:43:50.305Z,2.30
2022-07-29T15:48:52.007Z,2.97
2022-07-29T15:53:53.882Z,2.50
2022-07-29T15:58:55.675Z,3.03
2022-07-29T16:03:58.408Z,2.40
2022-07-29T16:09:00.624Z,2.53
2022-07-29T16:14:02.388Z,2.15
2022-07-29T16:19:04.899Z,2.58
2022-07-29T16:24:07.151Z,2.55
2022-07-29T16:29:08.828Z,2.40
2022-07-29T16:34:10.459Z,2.80
2022-07-29T16:39:12.806Z,2.80
2022-07-29T16:44:14.515Z,2.80
2022-07-29T16:49:19.351Z,3.03
2022-07-29T16:54:21.304Z,2.90
2022-07-29T16:59:23.024Z,3.10
2022-07-29T17:04:24.687Z,3.70
2022-07-29T17:09:26.443Z,3.58
2022-07-29T17:14:31.125Z,3.60
2022-07-29T17:19:35.452Z,6.20
2022-07-29T17:24:37.291Z,5.63
2022-07-29T17:29:40.257Z,5.47
2022-07-29T17:34:43.035Z,5.82
2022-07-29T17:39:44.948Z,9.43
2022-07-29T17:44:46.596Z,6.30
2022-07-29T17:49:48.253Z,5.30
2022-07-29T17:54:49.984Z,4.22
2022-07-29T17:59:51.734Z,4.90
2022-07-29T18:04:53.377Z,5.30
2022-07-29T18:10:00.019Z,4.25
2022-07-29T18:15:02.162Z,4.50
2022-07-29T18:20:04.815Z,4.43
2022-07-29T18:25:07.683Z,5.07
2022-07-29T18:30:09.549Z,5.07
2022-07-29T18:35:11.237Z,4.78
2022-07-29T18:40:13.144Z,5.30
2022-07-29T18:45:19.261Z,5.60
2022-07-29T18:50:26.946Z,5.72
2022-07-29T18:55:30.789Z,5.32
2022-07-29T19:00:32.426Z,4.95
2022-07-29T19:05:34.136Z,5.15
2022-07-29T19:10:35.770Z,5.72
2022-07-29T19:15:37.518Z,5.32
2022-07-29T19:20:39.969Z,5.15
2022-07-29T19:25:48.201Z,4.65
2022-07-29T19:30:55.765Z,4.72
2022-07-29T19:35:57.755Z,5.00
2022-07-29T19:40:59.450Z,5.38
2022-07-29T19:46:01.187Z,5.00
2022-07-29T19:51:03.115Z,4.53
2022-07-29T19:56:05.261Z,4.30
2022-07-29T20:01:11.420Z,6.75
2022-07-29T20:06:13.295Z,5.40
2022-07-29T20:11:14.968Z,4.53
2022-07-29T20:16:16.858Z,5.18
2022-07-29T20:21:18.567Z,5.63
2022-07-29T20:26:20.218Z,4.95
2022-07-29T20:31:22.273Z,5.28
2022-07-29T20:36:24.102Z,5.22
2022-07-29T20:41:26.329Z,5.05
2022-07-29T20:46:28.104Z,5.00
2022-07-29T20:51:29.779Z,4.60
2022-07-29T20:56:31.439Z,4.85
2022-07-29T21:01:33.168Z,4.88
2022-07-29T21:06:35.054Z,5.90
2022-07-29T21:11:44.692Z,5.50
2022-07-29T21:16:46.752Z,5.90
2022-07-29T21:21:48.408Z,5.05
2022-07-29T21:27:10.967Z,5.38
2022-07-29T21:32:11.745Z,4.80
2022-07-29T21:37:13.417Z,5.18
2022-07-29T21:42:15.155Z,5.35
2022-07-29T21:47:16.794Z,5.60
2022-07-29T21:52:18.899Z,4.93
2022-07-29T21:57:20.566Z,5.63
2022-07-29T22:02:22.214Z,5.40
2022-07-29T22:07:23.843Z,5.65
2022-07-29T22:12:25.480Z,5.45
2022-07-29T22:17:27.178Z,4.97
2022-07-29T22:22:28.903Z,5.53
2022-07-29T22:27:30.709Z,5.38
2022-07-29T22:32:34.155Z,6.75
2022-07-29T22:37:35.841Z,6.65
2022-07-29T22:42:40.708Z,5.80
2022-07-29T22:47:48.040Z,5.90
2022-07-29T22:52:50.193Z,5.93
2022-07-29T22:57:51.848Z,4.82
2022-07-29T23:02:53.528Z,5.65
2022-07-29T23:07:55.207Z,5.38
2022-07-29T23:12:56.916Z,5.30
2022-07-29T23:17:59.459Z,6.53
2022-07-29T23:23:01.143Z,7.38
2022-07-29T23:28:03.575Z,8.30
2022-07-29T23:33:05.272Z,9.60
2022-07-29T23:38:06.939Z,7.45
2022-07-29T23:43:09.090Z,6.22
2022-07-29T23:48:10.805Z,6.18
2022-07-29T23:53:12.773Z,5.57
2022-07-29T23:58:14.513Z,4.93
